createdAt,value
2019-05-23T00:02:00.061Z,9.60
2019-05-23T00:04:36.554Z,9.50
2019-05-23T00:07:12.848Z,9.50
2019-05-23T00:09:44.911Z,9.40
2019-05-23T00:12:33.160Z,9.30
2019-05-23T00:15:08.863Z,9.30
2019-05-23T00:17:39.243Z,9.20
2019-05-23T00:20:16.591Z,9.20
2019-05-23T00:22:48.525Z,9.10
2019-05-23T00:25:20.975Z,9.10
2019-05-23T00:27:55.068Z,9.00
2019-05-23T00:30:45.697Z,9.00
2019-05-23T00:33:13.770Z,9.00
2019-05-23T00:35:52.401Z,8.90
2019-05-23T00:38:30.844Z,8.90
2019-05-23T00:41:07.248Z,8.90
2019-05-23T00:43:34.443Z,8.80
2019-05-23T00:46:24.567Z,8.80
2019-05-23T00:49:04.371Z,8.80
2019-05-23T00:51:39.737Z,8.80
2019-05-23T00:54:17.903Z,8.80
2019-05-23T00:59:53.619Z,8.70
2019-05-23T01:02:17.817Z,8.70
2019-05-23T01:04:53.107Z,8.70
2019-05-23T01:07:25.004Z,8.60
2019-05-23T01:09:57.069Z,8.50
2019-05-23T01:12:27.841Z,8.50
2019-05-23T01:15:08.956Z,8.50
2019-05-23T01:17:38.543Z,8.40
2019-05-23T01:20:17.690Z,8.30
2019-05-23T01:23:05.731Z,8.30
2019-05-23T01:25:33.803Z,8.30
2019-05-23T01:28:05.374Z,8.30
2019-05-23T01:30:37.265Z,8.20
2019-05-23T01:33:15.739Z,8.20
2019-05-23T01:35:50.983Z,8.20
2019-05-23T01:38:26.185Z,8.20
2019-05-23T01:40:54.476Z,8.10
2019-05-23T01:43:34.499Z,8.10
2019-05-23T01:45:59.943Z,8.10
2019-05-23T01:48:44.167Z,8.00
2019-05-23T01:51:16.178Z,8.00
2019-05-23T01:53:47.118Z,8.00
2019-05-23T01:56:25.303Z,8.00
2019-05-23T01:59:00.147Z,8.00
2019-05-23T02:01:30.905Z,7.90
2019-05-23T02:04:04.933Z,7.90
2019-05-23T02:06:41.127Z,7.80
2019-05-23T02:09:12.848Z,7.80
2019-05-23T02:11:55.002Z,7.80
2019-05-23T02:14:19.573Z,7.80
2019-05-23T02:16:52.519Z,7.80
2019-05-23T02:19:31.815Z,7.70
2019-05-23T02:22:06.796Z,7.80
2019-05-23T02:24:41.486Z,7.80
2019-05-23T02:27:30.359Z,7.70
2019-05-23T02:30:02.624Z,7.70
2019-05-23T02:32:45.569Z,7.70
2019-05-23T02:35:17.422Z,7.60
2019-05-23T02:37:51.692Z,7.60
2019-05-23T02:40:38.320Z,7.50
2019-05-23T02:43:25.271Z,7.50
2019-05-23T02:46:08.308Z,7.50
2019-05-23T02:51:38.508Z,7.40
2019-05-23T02:54:21.185Z,7.30
2019-05-23T02:57:04.119Z,7.30
2019-05-23T02:59:42.347Z,7.20
2019-05-23T03:02:47.712Z,7.20
2019-05-23T03:09:08.550Z,7.00
2019-05-23T03:10:59.703Z,6.90
2019-05-23T03:13:45.528Z,6.90
2019-05-23T03:16:10.191Z,6.80
2019-05-23T03:18:54.443Z,6.80
2019-05-23T03:21:24.880Z,6.80
2019-05-23T03:23:54.942Z,6.70
2019-05-23T03:26:53.784Z,6.70
2019-05-23T03:32:40.725Z,6.60
2019-05-23T03:35:11.389Z,6.60
2019-05-23T03:40:49.507Z,6.50
2019-05-23T03:43:23.226Z,6.50
2019-05-23T03:45:58.956Z,6.50
2019-05-23T03:48:32.816Z,6.50
2019-05-23T03:51:07.495Z,6.40
2019-05-23T03:53:39.825Z,6.40
2019-05-23T03:56:13.380Z,6.40
2019-05-23T03:58:59.963Z,6.30
2019-05-23T04:01:23.858Z,6.30
2019-05-23T04:04:03.197Z,6.30
2019-05-23T04:06:41.794Z,6.40
2019-05-23T04:09:23.826Z,6.40
2019-05-23T04:17:43.679Z,6.50
2019-05-23T04:20:14.618Z,6.60
2019-05-23T04:25:52.975Z,6.70
2019-05-23T04:28:21.942Z,6.70
2019-05-23T04:31:01.431Z,6.80
2019-05-23T04:34:01.134Z,6.90
2019-05-23T04:36:11.975Z,6.90
2019-05-23T04:38:49.722Z,7.00
2019-05-23T04:41:30.619Z,7.00
2019-05-23T04:44:10.075Z,7.10
2019-05-23T04:46:57.333Z,7.10
2019-05-23T04:49:22.513Z,7.20
2019-05-23T04:52:03.647Z,7.20
2019-05-23T04:54:32.719Z,7.30
2019-05-23T04:57:13.831Z,7.30
2019-05-23T04:59:53.083Z,7.40
2019-05-23T05:02:47.706Z,7.40
2019-05-23T05:05:01.711Z,7.50
2019-05-23T05:07:35.111Z,7.50
2019-05-23T05:13:03.496Z,7.60
2019-05-23T05:15:33.063Z,7.70
2019-05-23T05:18:13.681Z,7.80
2019-05-23T05:20:55.804Z,7.80
2019-05-23T05:23:24.381Z,7.90
2019-05-23T05:26:00.043Z,8.00
2019-05-23T05:28:24.820Z,8.00
2019-05-23T05:30:54.353Z,8.20
2019-05-23T05:33:26.164Z,8.20
2019-05-23T05:35:55.022Z,8.30
2019-05-23T05:38:28.299Z,8.30
2019-05-23T05:40:55.566Z,8.40
2019-05-23T05:43:24.649Z,8.50
2019-05-23T05:45:53.967Z,8.50
2019-05-23T05:48:22.851Z,8.60
2019-05-23T05:50:51.838Z,8.70
2019-05-23T05:53:20.648Z,8.80
2019-05-23T05:55:49.511Z,9.00
2019-05-23T05:58:18.379Z,9.10
2019-05-23T06:00:51.526Z,9.10
2019-05-23T06:03:20.397Z,9.30
2019-05-23T06:05:50.811Z,9.40
2019-05-23T06:08:21.346Z,9.50
2019-05-23T06:10:50.211Z,9.60
2019-05-23T06:13:19.348Z,9.70
2019-05-23T06:15:48.885Z,9.80
2019-05-23T06:18:17.887Z,9.90
2019-05-23T06:20:47.817Z,10.00
2019-05-23T06:23:16.888Z,10.10
2019-05-23T06:25:47.123Z,10.20
2019-05-23T06:28:17.067Z,10.30
2019-05-23T06:30:46.437Z,10.40
2019-05-23T06:33:23.220Z,10.50
2019-05-23T06:35:46.593Z,10.50
2019-05-23T06:38:15.567Z,10.60
2019-05-23T06:40:44.580Z,10.70
2019-05-23T06:43:13.922Z,10.80
2019-05-23T06:45:43.483Z,10.90
2019-05-23T06:48:13.761Z,11.00
2019-05-23T06:50:42.590Z,11.00
2019-05-23T06:53:11.924Z,11.20
2019-05-23T06:55:40.772Z,11.30
2019-05-23T06:58:09.621Z,11.30
2019-05-23T07:00:39.069Z,11.50
2019-05-23T07:03:08.336Z,11.50
2019-05-23T07:05:37.764Z,11.60
2019-05-23T07:08:07.429Z,11.70
2019-05-23T07:10:36.700Z,11.80
2019-05-23T07:13:05.759Z,11.90
2019-05-23T07:15:40.833Z,12.00
2019-05-23T07:18:09.780Z,12.10
2019-05-23T07:20:38.755Z,12.20
2019-05-23T07:23:10.557Z,12.30
2019-05-23T07:25:39.554Z,12.40
2019-05-23T07:28:08.746Z,12.50
2019-05-23T07:30:37.680Z,12.50
2019-05-23T07:33:08.204Z,12.70
2019-05-23T07:35:37.233Z,12.80
2019-05-23T07:38:06.804Z,12.80
2019-05-23T07:40:35.680Z,12.90
2019-05-23T07:43:06.307Z,13.00
2019-05-23T07:45:46.298Z,13.10
2019-05-23T07:48:15.385Z,13.20
2019-05-23T07:50:45.037Z,13.30
2019-05-23T07:53:15.960Z,13.40
2019-05-23T07:55:46.399Z,13.50
2019-05-23T07:58:15.630Z,13.50
2019-05-23T08:01:01.396Z,13.70
2019-05-23T08:03:33.633Z,13.80
2019-05-23T08:06:03.171Z,13.80
2019-05-23T08:08:32.235Z,14.00
2019-05-23T08:11:01.056Z,14.00
2019-05-23T08:13:31.376Z,14.10
2019-05-23T08:16:00.259Z,14.10
2019-05-23T08:18:29.845Z,14.10
2019-05-23T08:20:58.698Z,14.20
2019-05-23T08:23:27.552Z,14.30
2019-05-23T08:25:56.381Z,14.40
2019-05-23T08:28:25.452Z,14.60
2019-05-23T08:30:54.879Z,14.70
2019-05-23T08:33:23.847Z,14.90
2019-05-23T08:35:53.287Z,15.00
2019-05-23T08:38:22.174Z,15.10
2019-05-23T08:40:51.583Z,15.20
2019-05-23T08:43:20.516Z,15.20
2019-05-23T08:45:49.407Z,15.30
2019-05-23T08:48:18.311Z,15.40
2019-05-23T08:50:51.253Z,15.50
2019-05-23T08:53:18.068Z,15.60
2019-05-23T08:55:48.787Z,15.80
2019-05-23T08:58:17.879Z,15.90
2019-05-23T09:00:46.758Z,16.00
2019-05-23T09:03:16.178Z,16.10
2019-05-23T09:05:46.631Z,16.10
2019-05-23T09:08:16.960Z,16.00
2019-05-23T09:10:46.479Z,16.10
2019-05-23T09:13:15.523Z,16.00
2019-05-23T09:15:44.889Z,15.90
2019-05-23T09:18:14.329Z,15.80
2019-05-23T09:20:43.319Z,15.70
2019-05-23T09:23:12.127Z,15.60
2019-05-23T09:25:41.202Z,15.50
2019-05-23T09:28:11.655Z,15.50
2019-05-23T09:30:40.504Z,15.50
2019-05-23T09:33:09.481Z,15.50
2019-05-23T09:35:38.319Z,15.60
2019-05-23T09:38:07.203Z,15.70
2019-05-23T09:40:37.028Z,15.80
2019-05-23T09:43:06.506Z,15.90
2019-05-23T09:45:35.456Z,16.00
2019-05-23T09:48:04.834Z,16.10
2019-05-23T09:50:34.321Z,16.20
2019-05-23T09:53:03.151Z,16.20
2019-05-23T09:55:34.109Z,16.20
2019-05-23T09:58:03.263Z,16.20
2019-05-23T10:00:32.165Z,16.20
2019-05-23T10:03:01.504Z,16.30
2019-05-23T10:05:42.601Z,16.40
2019-05-23T10:08:01.172Z,16.50
2019-05-23T10:10:30.152Z,16.60
2019-05-23T10:12:58.985Z,16.70
2019-05-23T10:15:40.340Z,16.70
2019-05-23T10:18:10.724Z,16.80
2019-05-23T10:20:40.013Z,16.80
2019-05-23T10:23:08.862Z,16.80
2019-05-23T10:25:37.701Z,16.80
2019-05-23T10:28:06.982Z,16.80
2019-05-23T10:30:35.876Z,16.80
2019-05-23T10:33:11.551Z,16.70
2019-05-23T10:35:36.276Z,16.70
2019-05-23T10:38:05.927Z,16.70
2019-05-23T10:40:34.940Z,16.60
2019-05-23T10:43:04.056Z,16.50
2019-05-23T10:45:32.949Z,16.50
2019-05-23T10:48:02.245Z,16.40
2019-05-23T10:50:44.375Z,16.40
2019-05-23T10:53:03.704Z,16.50
2019-05-23T10:55:32.549Z,16.60
2019-05-23T10:58:01.723Z,16.70
2019-05-23T11:00:30.874Z,16.90
2019-05-23T11:03:00.062Z,16.90
2019-05-23T11:05:29.437Z,17.10
2019-05-23T11:07:59.489Z,17.20
2019-05-23T11:10:28.976Z,17.30
2019-05-23T11:12:57.903Z,17.30
2019-05-23T11:15:26.785Z,17.40
2019-05-23T11:17:55.656Z,17.60
2019-05-23T11:20:24.540Z,17.50
2019-05-23T11:22:53.396Z,17.60
2019-05-23T11:25:23.272Z,17.80
2019-05-23T11:27:52.322Z,17.90
2019-05-23T11:30:34.195Z,17.90
2019-05-23T11:33:03.157Z,17.90
2019-05-23T11:35:33.109Z,17.80
2019-05-23T11:38:01.938Z,17.70
2019-05-23T11:40:33.626Z,17.70
2019-05-23T11:43:01.474Z,17.60
2019-05-23T11:45:32.212Z,17.50
2019-05-23T11:48:01.093Z,17.50
2019-05-23T11:50:30.515Z,17.40
2019-05-23T11:52:59.354Z,17.40
2019-05-23T11:55:28.641Z,17.50
2019-05-23T11:57:57.878Z,17.60
2019-05-23T12:00:53.869Z,17.70
2019-05-23T12:03:22.683Z,17.80
2019-05-23T12:05:51.956Z,17.90
2019-05-23T12:08:21.190Z,18.10
2019-05-23T12:10:50.355Z,18.10
2019-05-23T12:13:19.383Z,18.20
2019-05-23T12:15:49.870Z,18.20
2019-05-23T12:18:18.792Z,18.30
2019-05-23T12:20:47.656Z,18.40
2019-05-23T12:23:16.523Z,18.50
2019-05-23T12:25:45.323Z,18.50
2019-05-23T12:28:16.103Z,18.60
2019-05-23T12:30:44.973Z,18.60
2019-05-23T12:33:13.835Z,18.70
2019-05-23T12:35:42.656Z,18.80
2019-05-23T12:38:11.929Z,19.00
2019-05-23T12:40:40.762Z,19.10
2019-05-23T12:43:09.733Z,19.20
2019-05-23T12:45:38.568Z,19.30
2019-05-23T12:48:17.991Z,19.30
2019-05-23T12:50:53.910Z,19.20
2019-05-23T12:53:22.008Z,19.10
2019-05-23T12:55:50.843Z,19.00
2019-05-23T12:58:19.712Z,19.00
2019-05-23T13:00:50.641Z,18.90
2019-05-23T13:03:19.600Z,19.10
2019-05-23T13:05:48.654Z,19.20
2019-05-23T13:08:17.723Z,19.30
2019-05-23T13:10:46.644Z,19.20
2019-05-23T13:13:15.523Z,19.10
2019-05-23T13:15:44.455Z,19.00
2019-05-23T13:18:13.316Z,19.00
2019-05-23T13:20:43.043Z,18.90
2019-05-23T13:23:20.291Z,18.80
2019-05-23T13:25:42.540Z,18.70
2019-05-23T13:28:11.407Z,18.60
2019-05-23T13:30:40.238Z,18.60
2019-05-23T13:33:09.116Z,18.50
2019-05-23T13:35:38.348Z,18.60
2019-05-23T13:38:07.211Z,18.80
2019-05-23T13:40:36.045Z,18.90
2019-05-23T13:43:07.885Z,19.10
2019-05-23T13:45:35.773Z,19.30
2019-05-23T13:48:04.961Z,19.50
2019-05-23T13:50:34.591Z,19.60
2019-05-23T13:53:03.865Z,19.70
2019-05-23T13:55:33.000Z,19.60
2019-05-23T13:58:01.876Z,19.60
2019-05-23T14:00:32.280Z,19.50
2019-05-23T14:03:01.125Z,19.40
2019-05-23T14:05:30.273Z,19.40
2019-05-23T14:08:11.441Z,19.30
2019-05-23T14:10:30.632Z,19.20
2019-05-23T14:12:59.765Z,19.20
2019-05-23T14:15:32.704Z,19.20
2019-05-23T14:18:01.569Z,19.20
2019-05-23T14:20:30.503Z,19.30
2019-05-23T14:23:00.901Z,19.30
2019-05-23T14:25:30.792Z,19.30
2019-05-23T14:28:01.181Z,19.30
2019-05-23T14:30:37.576Z,19.40
2019-05-23T14:33:21.199Z,19.50
2019-05-23T14:35:51.641Z,19.50
2019-05-23T14:38:30.228Z,19.40
2019-05-23T14:40:51.397Z,19.40
2019-05-23T14:43:21.888Z,19.40
2019-05-23T14:46:08.813Z,19.40
2019-05-23T14:48:45.103Z,19.50
2019-05-23T14:51:15.744Z,19.50
2019-05-23T14:54:02.809Z,19.50
2019-05-23T14:56:35.171Z,19.60
2019-05-23T14:59:04.481Z,19.50
2019-05-23T15:01:34.952Z,19.50
2019-05-23T15:04:04.797Z,19.40
2019-05-23T15:06:33.865Z,19.30
2019-05-23T15:09:03.096Z,19.20
2019-05-23T15:11:31.956Z,19.10
2019-05-23T15:14:00.933Z,19.00
2019-05-23T15:16:29.761Z,18.90
2019-05-23T15:18:58.603Z,19.00
2019-05-23T15:21:27.429Z,18.90
2019-05-23T15:23:56.401Z,18.90
2019-05-23T15:26:25.224Z,18.90
2019-05-23T15:28:54.113Z,19.00
2019-05-23T15:31:23.149Z,18.90
2019-05-23T15:33:52.034Z,18.90
2019-05-23T15:36:20.912Z,18.90
2019-05-23T15:39:06.167Z,18.90
2019-05-23T15:41:20.293Z,18.90
2019-05-23T15:43:49.156Z,18.90
2019-05-23T15:46:18.136Z,18.90
2019-05-23T15:48:47.093Z,18.90
2019-05-23T15:51:17.645Z,18.90
2019-05-23T15:53:50.757Z,18.90
2019-05-23T15:56:36.649Z,18.90
2019-05-23T15:59:09.761Z,18.90
2019-05-23T16:01:48.886Z,18.80
2019-05-23T16:04:22.363Z,18.80
2019-05-23T16:06:51.318Z,18.80
2019-05-23T16:09:29.293Z,18.70
2019-05-23T16:11:51.667Z,18.70
2019-05-23T16:14:21.114Z,18.60
2019-05-23T16:16:50.358Z,18.50
2019-05-23T16:19:19.331Z,18.50
2019-05-23T16:21:48.574Z,18.40
2019-05-23T16:24:17.555Z,18.40
2019-05-23T16:26:47.505Z,18.30
2019-05-23T16:29:16.488Z,18.20
2019-05-23T16:31:45.377Z,18.10
2019-05-23T16:34:14.220Z,18.10
2019-05-23T16:36:43.376Z,18.00
2019-05-23T16:39:12.364Z,17.90
2019-05-23T16:41:41.206Z,17.90
2019-05-23T16:44:10.195Z,17.80
2019-05-23T16:46:39.206Z,17.80
2019-05-23T16:49:08.109Z,17.70
2019-05-23T16:51:37.044Z,17.60
2019-05-23T16:54:05.898Z,17.60
2019-05-23T16:56:53.022Z,17.50
2019-05-23T16:59:32.405Z,17.50
2019-05-23T17:02:09.103Z,17.40
2019-05-23T17:04:42.548Z,17.40
2019-05-23T17:07:31.090Z,17.30
2019-05-23T17:10:08.125Z,17.30
2019-05-23T17:12:50.108Z,17.20
2019-05-23T17:15:23.483Z,17.20
2019-05-23T17:18:02.388Z,17.10
2019-05-23T17:20:42.350Z,17.10
2019-05-23T17:23:15.952Z,17.10
2019-05-23T17:25:49.187Z,17.00
2019-05-23T17:28:19.726Z,17.00
2019-05-23T17:30:52.983Z,16.90
2019-05-23T17:33:23.147Z,16.90
2019-05-23T17:35:52.081Z,16.90
2019-05-23T17:38:21.169Z,16.90
2019-05-23T17:40:50.408Z,16.90
2019-05-23T17:43:19.404Z,16.90
2019-05-23T17:45:48.342Z,16.90
2019-05-23T17:48:17.273Z,16.80
2019-05-23T17:50:46.160Z,16.80
2019-05-23T17:53:15.311Z,16.80
2019-05-23T17:55:44.589Z,16.80
2019-05-23T17:58:13.502Z,16.80
2019-05-23T18:00:43.892Z,16.70
2019-05-23T18:03:12.827Z,16.70
2019-05-23T18:05:41.692Z,16.70
2019-05-23T18:08:11.121Z,16.70
2019-05-23T18:10:45.040Z,16.60
2019-05-23T18:13:11.188Z,16.60
2019-05-23T18:15:40.963Z,16.60
2019-05-23T18:18:09.800Z,16.50
2019-05-23T18:20:39.702Z,16.50
2019-05-23T18:23:09.195Z,16.50
2019-05-23T18:25:38.263Z,16.40
2019-05-23T18:28:08.662Z,16.40
2019-05-23T18:30:39.136Z,16.30
2019-05-23T18:33:09.358Z,16.30
2019-05-23T18:35:39.525Z,16.20
2019-05-23T18:38:08.458Z,16.10
2019-05-23T18:40:37.621Z,16.10
2019-05-23T18:43:07.162Z,16.00
2019-05-23T18:45:37.372Z,15.90
2019-05-23T18:48:06.777Z,15.90
2019-05-23T18:50:36.788Z,15.80
2019-05-23T18:53:06.961Z,15.70
2019-05-23T18:55:36.110Z,15.60
2019-05-23T18:58:05.701Z,15.50
2019-05-23T19:00:53.088Z,15.50
2019-05-23T19:03:23.013Z,15.30
2019-05-23T19:05:52.652Z,15.30
2019-05-23T19:08:23.322Z,15.20
2019-05-23T19:10:52.800Z,15.20
2019-05-23T19:13:22.309Z,15.10
2019-05-23T19:15:51.889Z,14.90
2019-05-23T19:18:21.982Z,14.90
2019-05-23T19:20:54.780Z,14.80
2019-05-23T19:23:23.209Z,14.80
2019-05-23T19:25:52.614Z,14.70
2019-05-23T19:28:22.781Z,14.50
2019-05-23T19:30:53.005Z,14.50
2019-05-23T19:33:22.240Z,14.40
2019-05-23T19:35:52.253Z,14.30
2019-05-23T19:38:22.203Z,14.30
2019-05-23T19:40:52.054Z,14.20
2019-05-23T19:43:23.478Z,14.10
2019-05-23T19:45:52.674Z,14.10
2019-05-23T19:48:27.525Z,14.00
2019-05-23T19:50:59.316Z,13.90
2019-05-23T19:53:40.570Z,13.90
2019-05-23T19:56:11.191Z,13.80
2019-05-23T19:58:44.440Z,13.70
2019-05-23T20:01:13.700Z,13.70
2019-05-23T20:03:43.714Z,13.60
2019-05-23T20:06:15.670Z,13.50
2019-05-23T20:08:45.564Z,13.50
2019-05-23T20:11:14.791Z,13.40
2019-05-23T20:13:44.460Z,13.30
2019-05-23T20:16:13.474Z,13.30
2019-05-23T20:18:42.467Z,13.30
2019-05-23T20:21:11.392Z,13.20
2019-05-23T20:23:40.263Z,13.20
2019-05-23T20:26:09.188Z,13.20
2019-05-23T20:28:40.089Z,13.10
2019-05-23T20:31:08.933Z,13.10
2019-05-23T20:33:37.803Z,13.00
2019-05-23T20:36:11.883Z,13.00
2019-05-23T20:38:41.899Z,12.90
2019-05-23T20:41:10.731Z,12.90
2019-05-23T20:43:39.599Z,12.80
2019-05-23T20:46:08.429Z,12.80
2019-05-23T20:48:37.849Z,12.70
2019-05-23T20:51:08.318Z,12.70
2019-05-23T20:53:39.800Z,12.60
2019-05-23T20:56:24.246Z,12.60
2019-05-23T20:58:59.557Z,12.50
2019-05-23T21:01:31.576Z,12.40
2019-05-23T21:04:03.090Z,12.40
2019-05-23T21:06:34.319Z,12.30
2019-05-23T21:09:09.184Z,12.30
2019-05-23T21:11:41.431Z,12.30
2019-05-23T21:14:13.850Z,12.30
2019-05-23T21:16:42.873Z,12.20
2019-05-23T21:19:12.575Z,12.10
2019-05-23T21:21:43.493Z,12.10
2019-05-23T21:24:13.030Z,12.10
2019-05-23T21:26:41.876Z,12.10
2019-05-23T21:29:12.915Z,12.00
2019-05-23T21:31:42.163Z,12.00
2019-05-23T21:34:13.542Z,11.90
2019-05-23T21:36:42.430Z,11.90
2019-05-23T21:39:15.743Z,11.90
2019-05-23T21:41:44.563Z,11.80
2019-05-23T21:44:13.435Z,11.80
2019-05-23T21:46:42.259Z,11.80
2019-05-23T21:49:11.130Z,11.70
2019-05-23T21:51:39.971Z,11.70
2019-05-23T21:54:08.795Z,11.70
2019-05-23T21:56:38.467Z,11.70
2019-05-23T21:59:07.383Z,11.60
2019-05-23T22:01:37.999Z,11.60
2019-05-23T22:04:15.000Z,11.50
2019-05-23T22:06:55.325Z,11.50
2019-05-23T22:09:22.427Z,11.40
2019-05-23T22:11:52.760Z,11.40
2019-05-23T22:14:21.982Z,11.30
2019-05-23T22:16:50.775Z,11.30
2019-05-23T22:19:21.211Z,11.20
2019-05-23T22:21:50.060Z,11.10
2019-05-23T22:24:20.200Z,11.10
2019-05-23T22:26:49.058Z,11.00
2019-05-23T22:29:18.439Z,11.00
2019-05-23T22:31:47.267Z,10.90
2019-05-23T22:34:20.827Z,10.90
2019-05-23T22:36:49.651Z,10.80
2019-05-23T22:39:18.940Z,10.80
2019-05-23T22:41:47.779Z,10.80
2019-05-23T22:44:17.143Z,10.70
2019-05-23T22:46:45.971Z,10.70
2019-05-23T22:49:14.830Z,10.60
2019-05-23T22:51:43.661Z,10.50
2019-05-23T22:54:12.587Z,10.40
2019-05-23T22:56:41.468Z,10.40
2019-05-23T22:59:10.291Z,10.30
2019-05-23T23:01:39.161Z,10.30
2019-05-23T23:04:07.983Z,10.30
2019-05-23T23:06:36.855Z,10.20
2019-05-23T23:09:07.279Z,10.10
2019-05-23T23:11:36.150Z,10.10
2019-05-23T23:14:05.575Z,10.10
2019-05-23T23:16:34.455Z,10.10
2019-05-23T23:19:03.612Z,10.00
2019-05-23T23:21:32.564Z,10.00
2019-05-23T23:24:01.435Z,10.00
2019-05-23T23:26:30.259Z,9.90
2019-05-23T23:29:00.221Z,9.90
2019-05-23T23:31:29.079Z,9.90
2019-05-23T23:33:57.910Z,9.80
2019-05-23T23:36:26.776Z,9.80
2019-05-23T23:38:55.591Z,9.80
2019-05-23T23:41:24.456Z,9.70
2019-05-23T23:43:59.198Z,9.70
2019-05-23T23:46:41.842Z,9.70
2019-05-23T23:49:28.503Z,9.60
2019-05-23T23:52:15.588Z,9.60
2019-05-23T23:55:02.000Z,9.50
2019-05-23T23:57:49.894Z,9.50
